sim
Sign-in with your pilot id or email,
or register
Callsign
Passwort

Schedule Details

Flight Number: OEO3435
Departure: Palermo Falcone-Borsellino Airport (LICJ) at 06:00
Arrival: Munich Airport (EDDM) at 08:05

Weather Information
Getting current METAR information for LICJ 211320Z 31011KT CAVOK 27/21 Q1016
Getting current METAR information for EDDM 211320Z 03005KT 310V110 CAVOK 23/13 Q1016 NOSIG

Schedule Frequency

Route Map